Time;durP1;ratioP1;P1;durP2;ratioP2;P2;SDS_P1;SDS_P2;PMS_P1;PMS_P2;Temp;Humidity;BMP_temperature;BMP_pressure;BME280_temperature;BME280_humidity;BME280_pressure;Samples;Min_cycle;Max_cycle;Signal;HPM_P1;HPM_P2
2020/12/19 00:00:38;;;;;;;11.57;9.00;;;4.60;99.90;;;;;;5054004;28;20179;-54
2020/12/19 00:03:04;;;;;;;11.13;9.13;;;4.60;99.90;;;;;;5054221;28;20316;-58
2020/12/19 00:05:30;;;;;;;11.30;9.40;;;4.70;99.90;;;;;;5054468;28;20186;-56
2020/12/19 00:07:55;;;;;;;10.33;8.40;;;4.70;99.90;;;;;;5054130;28;20281;-56
2020/12/19 00:10:21;;;;;;;11.83;8.77;;;4.80;99.90;;;;;;5055373;28;20613;-56
2020/12/19 00:12:47;;;;;;;11.67;9.17;;;4.80;99.90;;;;;;5054650;28;20224;-57
2020/12/19 00:15:14;;;;;;;10.57;8.73;;;4.80;99.90;;;;;;5053677;28;20197;-53
2020/12/19 00:17:40;;;;;;;11.50;9.03;;;4.60;99.90;;;;;;5054453;28;20245;-59
2020/12/19 00:20:05;;;;;;;10.80;8.90;;;4.70;99.90;;;;;;5052574;28;20198;-60
2020/12/19 00:22:31;;;;;;;10.50;9.13;;;4.70;99.90;;;;;;5052742;28;20646;-57
2020/12/19 00:24:57;;;;;;;12.07;9.57;;;4.80;99.90;;;;;;5054206;28;20540;-52
2020/12/19 00:27:22;;;;;;;11.80;9.47;;;4.80;99.90;;;;;;5053639;28;20195;-55
2020/12/19 00:29:48;;;;;;;10.17;8.30;;;4.80;99.90;;;;;;5050539;28;20615;-55
2020/12/19 00:32:14;;;;;;;10.57;8.43;;;4.90;99.90;;;;;;5052565;28;20527;-59
2020/12/19 00:34:39;;;;;;;10.10;8.03;;;4.90;99.90;;;;;;5057601;28;20179;-53
2020/12/19 00:37:05;;;;;;;10.77;8.33;;;4.80;99.90;;;;;;5065919;28;20222;-59
2020/12/19 00:39:31;;;;;;;10.23;8.80;;;4.90;99.90;;;;;;5054134;28;20191;-55
2020/12/19 00:41:56;;;;;;;10.97;8.90;;;4.80;99.90;;;;;;5058305;28;20190;-55
2020/12/19 00:44:22;;;;;;;13.40;10.03;;;4.90;99.90;;;;;;5073802;28;20261;-55
2020/12/19 00:46:51;;;;;;;11.63;8.83;;;4.90;99.90;;;;;;5073826;28;20194;-59
2020/12/19 00:49:17;;;;;;;11.10;9.10;;;5.00;99.90;;;;;;5065645;28;20175;-60
2020/12/19 00:51:43;;;;;;;13.00;9.40;;;5.00;99.90;;;;;;5054099;28;20171;-59
2020/12/19 00:54:08;;;;;;;11.43;8.93;;;5.00;99.90;;;;;;5053730;28;20194;-55
2020/12/19 00:56:34;;;;;;;11.00;8.70;;;5.10;99.90;;;;;;5056840;28;20179;-59
2020/12/19 00:58:59;;;;;;;11.40;9.10;;;5.00;99.90;;;;;;5054575;28;20266;-53
2020/12/19 01:01:25;;;;;;;9.80;8.47;;;5.00;99.90;;;;;;5054355;28;20183;-55
2020/12/19 01:03:53;;;;;;;10.47;8.23;;;5.00;99.90;;;;;;5054458;28;20175;-57
2020/12/19 01:06:20;;;;;;;11.10;8.90;;;5.00;99.90;;;;;;5053315;28;20187;-56
2020/12/19 01:08:48;;;;;;;10.53;9.10;;;5.00;99.90;;;;;;5054384;28;20305;-52
2020/12/19 01:11:19;;;;;;;12.40;9.83;;;5.00;99.90;;;;;;5052602;28;20642;-56
2020/12/19 01:13:45;;;;;;;11.43;9.30;;;4.90;99.90;;;;;;5043620;28;20159;-58
2020/12/19 01:16:16;;;;;;;12.03;9.60;;;4.80;99.90;;;;;;5053682;28;20187;-55
2020/12/19 01:18:43;;;;;;;11.73;8.97;;;4.80;99.90;;;;;;5045973;28;20294;-59
2020/12/19 01:21:18;;;;;;;12.90;9.80;;;4.60;99.90;;;;;;5053250;28;20187;-55
2020/12/19 01:23:45;;;;;;;12.73;9.10;;;4.60;99.90;;;;;;5053596;28;20190;-57
2020/12/19 01:26:11;;;;;;;11.20;8.63;;;4.60;99.90;;;;;;5057788;28;20183;-59
2020/12/19 01:28:38;;;;;;;29.03;10.30;;;4.60;99.90;;;;;;5056619;28;20221;-55
2020/12/19 01:31:05;;;;;;;12.03;9.87;;;4.50;99.90;;;;;;5057271;28;20258;-53
2020/12/19 01:33:31;;;;;;;13.00;9.90;;;4.30;99.90;;;;;;5057341;28;20639;-55
2020/12/19 01:35:58;;;;;;;13.07;10.50;;;4.10;99.90;;;;;;5056545;28;20627;-51
2020/12/19 01:38:24;;;;;;;14.20;10.87;;;4.10;99.90;;;;;;5057728;28;20286;-58
2020/12/19 01:40:55;;;;;;;15.47;11.43;;;4.20;99.90;;;;;;5057163;28;20183;-59
2020/12/19 01:43:21;;;;;;;14.50;11.53;;;4.30;99.90;;;;;;5056488;28;20233;-59
2020/12/19 01:45:50;;;;;;;14.87;10.23;;;4.40;99.90;;;;;;5036948;28;20183;-56
2020/12/19 01:48:23;;;;;;;16.77;11.33;;;4.30;99.90;;;;;;5053462;28;20218;-54
2020/12/19 01:50:51;;;;;;;27.03;11.73;;;4.20;99.90;;;;;;5056659;28;20262;-54
2020/12/19 01:53:18;;;;;;;15.60;11.20;;;4.20;99.90;;;;;;5057545;28;20175;-54
2020/12/19 01:55:44;;;;;;;16.93;10.97;;;4.10;99.90;;;;;;5056800;28;20171;-52
2020/12/19 01:58:10;;;;;;;19.07;11.73;;;4.10;99.90;;;;;;5056190;28;20194;-59
2020/12/19 02:00:42;;;;;;;15.00;11.40;;;4.20;99.90;;;;;;5056354;28;20657;-57
2020/12/19 02:03:08;;;;;;;18.33;11.23;;;4.20;99.90;;;;;;5057586;28;20186;-58
2020/12/19 02:05:40;;;;;;;14.20;11.37;;;4.20;99.90;;;;;;5055360;28;20185;-59
2020/12/19 02:08:06;;;;;;;14.93;11.33;;;4.10;99.90;;;;;;5037564;28;20287;-52
2020/12/19 02:10:34;;;;;;;14.73;11.30;;;4.10;99.90;;;;;;5043583;28;20660;-52
2020/12/19 02:13:04;;;;;;;16.20;10.83;;;4.10;99.90;;;;;;5056241;28;20170;-55
2020/12/19 02:15:44;;;;;;;15.83;11.60;;;4.20;99.90;;;;;;5057514;28;20226;-52
2020/12/19 02:18:10;;;;;;;15.63;11.50;;;4.30;99.90;;;;;;5056555;28;20205;-52
2020/12/19 02:20:36;;;;;;;19.07;13.63;;;4.20;99.90;;;;;;5057558;28;20189;-52
2020/12/19 02:23:05;;;;;;;19.50;12.23;;;4.20;99.90;;;;;;5056499;28;20178;-53
2020/12/19 02:25:35;;;;;;;14.30;10.97;;;4.20;99.90;;;;;;5053375;28;20262;-52
2020/12/19 02:28:02;;;;;;;14.57;10.93;;;4.30;99.90;;;;;;5048180;28;20187;-54
2020/12/19 02:30:28;;;;;;;13.77;10.87;;;4.40;99.90;;;;;;5057474;28;20179;-54
2020/12/19 02:32:54;;;;;;;14.00;11.23;;;4.40;99.90;;;;;;5042518;28;20180;-60
2020/12/19 02:35:20;;;;;;;12.83;10.57;;;4.50;99.90;;;;;;5053037;28;20182;-53
2020/12/19 02:37:45;;;;;;;13.40;10.83;;;4.40;99.90;;;;;;5053440;28;20539;-54
2020/12/19 02:40:11;;;;;;;14.67;11.10;;;4.40;99.90;;;;;;5037142;28;20164;-55
2020/12/19 02:42:36;;;;;;;16.87;11.87;;;4.40;99.90;;;;;;5036678;28;20183;-59
2020/12/19 02:45:02;;;;;;;13.80;10.93;;;4.40;99.90;;;;;;5036419;28;20184;-56
2020/12/19 02:47:27;;;;;;;17.60;12.47;;;4.30;99.90;;;;;;5036367;28;20647;-54
2020/12/19 02:49:53;;;;;;;16.50;11.93;;;4.20;99.90;;;;;;5044082;28;20186;-52
2020/12/19 02:52:18;;;;;;;15.00;11.77;;;4.10;99.90;;;;;;5057559;28;20174;-53
2020/12/19 02:54:44;;;;;;;15.90;11.97;;;4.00;99.90;;;;;;5055756;28;20187;-52
2020/12/19 02:57:09;;;;;;;15.30;11.30;;;4.00;99.90;;;;;;5056155;28;20214;-57
2020/12/19 02:59:35;;;;;;;15.63;11.33;;;4.00;99.90;;;;;;5056163;28;20179;-52
2020/12/19 03:02:00;;;;;;;20.03;11.70;;;4.00;99.90;;;;;;5055600;28;20631;-53
2020/12/19 03:04:26;;;;;;;18.83;12.17;;;4.10;99.90;;;;;;5054911;28;20551;-60
2020/12/19 03:06:51;;;;;;;57.07;15.30;;;4.20;99.90;;;;;;5056526;28;20201;-57
2020/12/19 03:09:18;;;;;;;15.20;11.13;;;4.20;99.90;;;;;;5057195;28;20183;-54
2020/12/19 03:11:44;;;;;;;16.17;11.67;;;4.20;99.90;;;;;;5055468;28;20187;-55
2020/12/19 03:14:09;;;;;;;16.27;11.13;;;4.30;99.90;;;;;;5055823;28;20175;-53
2020/12/19 03:16:35;;;;;;;25.23;13.27;;;4.30;99.90;;;;;;5054564;28;20183;-56
2020/12/19 03:19:00;;;;;;;19.50;10.90;;;4.30;99.90;;;;;;5050635;28;20191;-56
2020/12/19 03:21:26;;;;;;;14.77;11.10;;;5.00;99.90;;;;;;5053775;28;20249;-54
2020/12/19 03:23:51;;;;;;;14.70;11.00;;;4.10;99.90;;;;;;5056835;28;20186;-58
2020/12/19 03:26:17;;;;;;;54.17;16.10;;;4.10;99.90;;;;;;5056134;28;20179;-51
2020/12/19 03:28:42;;;;;;;15.70;12.00;;;4.00;99.90;;;;;;5056320;28;20206;-52
2020/12/19 03:31:08;;;;;;;21.57;12.57;;;3.80;99.90;;;;;;5055329;28;20167;-57
2020/12/19 03:33:34;;;;;;;15.10;11.60;;;3.70;99.90;;;;;;5056128;28;20240;-56
2020/12/19 03:35:59;;;;;;;14.27;10.83;;;3.70;99.90;;;;;;5054750;28;20182;-59
2020/12/19 03:38:25;;;;;;;14.33;11.27;;;3.80;99.90;;;;;;5055378;28;20194;-53
2020/12/19 03:40:50;;;;;;;13.97;10.50;;;3.90;99.90;;;;;;5056322;28;20175;-51
2020/12/19 03:43:16;;;;;;;13.37;9.80;;;4.00;99.90;;;;;;5055992;28;20634;-53
2020/12/19 03:45:41;;;;;;;16.10;11.43;;;4.10;99.90;;;;;;5054793;28;20171;-55
2020/12/19 03:48:07;;;;;;;15.47;11.13;;;4.20;99.90;;;;;;5053658;28;20264;-52
2020/12/19 03:50:32;;;;;;;12.90;10.43;;;4.30;99.90;;;;;;5055534;28;20171;-57
2020/12/19 03:52:58;;;;;;;14.10;10.10;;;4.50;99.90;;;;;;5054449;28;20187;-56
2020/12/19 03:55:23;;;;;;;12.00;9.53;;;4.50;99.90;;;;;;5055826;28;20171;-59
2020/12/19 03:57:49;;;;;;;13.57;10.53;;;4.40;99.90;;;;;;5055488;28;20260;-56
2020/12/19 04:00:14;;;;;;;14.07;10.63;;;4.20;99.90;;;;;;5056664;28;20221;-57
2020/12/19 04:02:40;;;;;;;13.77;10.40;;;4.10;99.90;;;;;;5055438;28;20659;-57
2020/12/19 04:05:09;;;;;;;12.30;9.67;;;4.10;99.90;;;;;;5054174;28;20191;-55
2020/12/19 04:07:35;;;;;;;12.57;9.63;;;4.10;99.90;;;;;;5054653;28;20206;-59
2020/12/19 04:10:01;;;;;;;13.30;10.03;;;4.20;99.90;;;;;;5053863;28;20182;-54
2020/12/19 04:12:26;;;;;;;13.30;10.77;;;4.30;99.90;;;;;;5054714;28;20198;-59
2020/12/19 04:14:52;;;;;;;13.67;10.20;;;4.30;99.90;;;;;;5056836;28;20171;-57
2020/12/19 04:17:17;;;;;;;13.97;10.13;;;4.30;99.90;;;;;;5056311;28;20265;-53
2020/12/19 04:19:43;;;;;;;13.93;9.83;;;4.30;99.90;;;;;;5054517;28;20245;-53
2020/12/19 04:22:09;;;;;;;10.57;8.30;;;4.30;99.90;;;;;;5054990;28;20646;-59
2020/12/19 04:24:34;;;;;;;12.43;9.90;;;4.40;99.90;;;;;;5055229;28;20203;-56
2020/12/19 04:27:00;;;;;;;13.17;10.20;;;4.60;99.90;;;;;;5054397;28;20528;-55
2020/12/19 04:29:26;;;;;;;14.23;10.50;;;4.60;99.90;;;;;;5054687;28;20205;-58
2020/12/19 04:31:53;;;;;;;14.43;10.97;;;4.70;99.90;;;;;;5054285;28;20531;-51
2020/12/19 04:34:18;;;;;;;18.27;11.27;;;4.60;99.90;;;;;;5055017;28;20186;-52
2020/12/19 04:36:44;;;;;;;15.27;10.57;;;4.40;99.90;;;;;;5053935;28;20203;-55
2020/12/19 04:39:09;;;;;;;14.03;10.13;;;4.50;99.90;;;;;;5053966;28;20187;-56
2020/12/19 04:41:35;;;;;;;13.23;10.40;;;4.50;99.90;;;;;;5054347;28;20674;-51
2020/12/19 04:44:02;;;;;;;14.03;10.30;;;4.50;99.90;;;;;;5054655;28;20179;-55
2020/12/19 04:46:32;;;;;;;15.53;10.53;;;4.60;99.90;;;;;;5054520;28;20678;-56
2020/12/19 04:48:59;;;;;;;13.60;10.27;;;4.60;99.90;;;;;;5055625;28;20543;-55
2020/12/19 04:51:28;;;;;;;13.43;10.40;;;6.00;99.90;;;;;;5056564;28;20581;-55
2020/12/19 04:53:54;;;;;;;13.53;10.53;;;4.70;99.90;;;;;;5054008;28;20266;-53
2020/12/19 04:56:21;;;;;;;13.50;10.57;;;4.60;99.90;;;;;;5053522;28;20179;-58
2020/12/19 04:58:56;;;;;;;17.90;11.70;;;4.60;99.90;;;;;;5054056;28;20238;-54
2020/12/19 05:01:22;;;;;;;14.90;11.10;;;4.60;99.90;;;;;;5058674;28;20262;-59
2020/12/19 05:03:48;;;;;;;14.63;10.73;;;4.40;99.90;;;;;;5057624;28;20207;-55
2020/12/19 05:06:20;;;;;;;13.90;10.67;;;4.40;99.90;;;;;;5057431;28;20280;-52
2020/12/19 05:08:46;;;;;;;13.70;10.23;;;4.40;99.90;;;;;;5046041;28;20269;-55
2020/12/19 05:11:12;;;;;;;14.17;11.27;;;4.50;99.90;;;;;;5057715;28;20195;-56
2020/12/19 05:13:43;;;;;;;14.60;11.30;;;4.60;99.90;;;;;;5057571;28;20186;-58
2020/12/19 05:16:10;;;;;;;15.83;11.53;;;4.60;99.90;;;;;;5057429;28;20159;-55
2020/12/19 05:18:37;;;;;;;14.57;11.30;;;4.60;99.90;;;;;;5057490;28;20211;-54
2020/12/19 05:21:07;;;;;;;14.17;11.03;;;4.60;99.90;;;;;;5057287;28;20175;-54
2020/12/19 05:23:34;;;;;;;15.77;11.77;;;4.50;99.90;;;;;;5057448;28;20213;-52
2020/12/19 05:26:03;;;;;;;18.37;11.73;;;4.60;99.90;;;;;;5057962;28;20511;-56
2020/12/19 05:28:28;;;;;;;15.30;11.67;;;4.60;99.90;;;;;;5057614;28;20257;-57
2020/12/19 05:30:57;;;;;;;14.70;11.57;;;4.60;99.90;;;;;;5058228;28;20172;-55
2020/12/19 05:33:22;;;;;;;15.40;11.40;;;4.70;99.90;;;;;;5057947;28;20206;-56
2020/12/19 05:35:48;;;;;;;15.00;10.80;;;4.60;99.90;;;;;;5057885;28;20183;-56
2020/12/19 05:38:14;;;;;;;14.13;10.63;;;4.50;99.90;;;;;;5056736;28;20285;-54
2020/12/19 05:40:39;;;;;;;15.63;11.27;;;4.20;99.90;;;;;;5057886;28;20179;-51
2020/12/19 05:43:05;;;;;;;14.00;11.03;;;3.80;99.90;;;;;;5057079;28;20195;-55
2020/12/19 05:45:31;;;;;;;14.53;10.87;;;3.80;99.90;;;;;;5057336;28;20210;-58
2020/12/19 05:47:57;;;;;;;14.13;10.83;;;3.90;99.90;;;;;;5056836;28;20265;-59
2020/12/19 05:50:23;;;;;;;14.77;11.20;;;4.00;99.90;;;;;;5057478;28;20179;-56
2020/12/19 05:52:49;;;;;;;13.53;10.57;;;4.10;99.90;;;;;;5057215;28;20206;-59
2020/12/19 05:55:19;;;;;;;14.40;10.73;;;4.20;99.90;;;;;;5058024;28;20203;-59
2020/12/19 05:57:45;;;;;;;13.57;10.53;;;4.40;99.90;;;;;;5043352;28;20286;-53
2020/12/19 06:00:17;;;;;;;15.40;11.33;;;4.40;99.90;;;;;;5056292;28;20569;-57
2020/12/19 06:02:44;;;;;;;14.50;10.73;;;4.50;99.90;;;;;;5057862;28;20317;-57
2020/12/19 06:05:14;;;;;;;13.83;10.80;;;4.50;99.90;;;;;;5057428;28;20183;-58
2020/12/19 06:07:47;;;;;;;14.80;10.93;;;4.70;99.90;;;;;;5056412;28;20293;-55
2020/12/19 06:10:16;;;;;;;13.77;10.67;;;4.70;99.90;;;;;;5055862;28;20582;-55
2020/12/19 06:13:05;;;;;;;20.13;11.93;;;4.80;99.90;;;;;;5057050;28;20175;-52
2020/12/19 06:15:54;;;;;;;14.63;10.80;;;4.80;99.90;;;;;;5057875;28;20179;-52
2020/12/19 06:18:59;;;;;;;14.37;10.77;;;4.90;99.90;;;;;;5055876;28;20673;-53
2020/12/19 06:21:25;;;;;;;13.70;9.47;;;4.80;99.90;;;;;;5056067;28;20190;-52
2020/12/19 06:23:50;;;;;;;13.17;9.70;;;4.80;99.90;;;;;;5056336;28;20245;-56
2020/12/19 06:26:16;;;;;;;13.47;9.77;;;4.80;99.90;;;;;;5056939;28;20183;-59
2020/12/19 06:28:41;;;;;;;10.37;8.57;;;4.80;99.90;;;;;;5056687;28;20200;-59
2020/12/19 06:31:26;;;;;;;11.10;8.93;;;4.80;99.90;;;;;;5057029;28;20225;-52
2020/12/19 06:33:53;;;;;;;13.13;9.70;;;4.80;99.90;;;;;;5035989;28;20214;-57
2020/12/19 06:36:25;;;;;;;10.80;9.10;;;4.60;99.90;;;;;;5043178;28;20179;-52
2020/12/19 06:39:09;;;;;;;13.90;9.87;;;4.30;99.90;;;;;;5056610;28;20179;-55
2020/12/19 06:41:50;;;;;;;11.10;9.40;;;4.30;99.90;;;;;;5056824;28;20163;-54
2020/12/19 06:44:32;;;;;;;11.33;8.97;;;4.30;99.90;;;;;;5049926;28;20540;-55
2020/12/19 06:47:01;;;;;;;13.63;10.57;;;4.30;99.90;;;;;;5037187;28;20204;-54
2020/12/19 06:49:35;;;;;;;11.67;9.17;;;4.30;99.90;;;;;;5029832;28;20238;-57
2020/12/19 06:52:04;;;;;;;11.93;10.03;;;4.30;99.90;;;;;;5047342;28;20532;-56
2020/12/19 06:54:31;;;;;;;12.30;10.07;;;4.20;99.90;;;;;;5046833;28;20172;-52
2020/12/19 06:56:57;;;;;;;11.97;10.30;;;4.10;99.90;;;;;;5051685;28;20215;-52
2020/12/19 06:59:24;;;;;;;11.97;9.93;;;4.20;99.90;;;;;;5047571;28;20686;-51
2020/12/19 07:01:50;;;;;;;10.77;9.47;;;4.20;99.90;;;;;;5070572;28;20305;-53
2020/12/19 07:04:32;;;;;;;13.03;10.13;;;4.20;99.90;;;;;;5056027;28;20207;-56
2020/12/19 07:07:03;;;;;;;10.53;8.63;;;4.30;99.90;;;;;;5055317;28;20316;-57
2020/12/19 07:09:29;;;;;;;12.00;9.47;;;4.40;99.90;;;;;;5068206;28;20541;-56
2020/12/19 07:11:55;;;;;;;11.10;9.40;;;4.40;99.90;;;;;;5060833;28;20198;-54
2020/12/19 07:14:21;;;;;;;9.83;7.87;;;4.40;99.90;;;;;;5071793;28;20193;-53
2020/12/19 07:16:51;;;;;;;11.07;9.00;;;4.50;99.90;;;;;;5054318;28;20207;-56
2020/12/19 07:19:25;;;;;;;10.70;8.93;;;4.60;99.90;;;;;;5055212;28;20245;-56
2020/12/19 07:21:56;;;;;;;10.47;8.67;;;4.70;99.90;;;;;;5055339;28;20272;-57
2020/12/19 07:24:22;;;;;;;9.70;8.67;;;4.70;99.90;;;;;;5054533;28;20175;-52
2020/12/19 07:26:50;;;;;;;11.33;8.33;;;4.70;99.90;;;;;;5053027;28;20198;-55
2020/12/19 07:29:21;;;;;;;9.73;8.30;;;4.80;99.90;;;;;;5052875;28;20187;-53
2020/12/19 07:31:49;;;;;;;9.50;8.37;;;4.90;99.90;;;;;;5052709;28;20206;-54
2020/12/19 07:34:15;;;;;;;10.63;8.73;;;5.00;99.90;;;;;;5053218;28;20175;-53
2020/12/19 07:36:42;;;;;;;10.10;8.40;;;5.10;99.90;;;;;;5053410;28;20179;-53
2020/12/19 07:39:09;;;;;;;11.27;8.60;;;5.10;99.90;;;;;;5053593;28;20178;-54
2020/12/19 07:41:35;;;;;;;10.27;8.27;;;5.10;99.90;;;;;;5055896;28;20262;-54
2020/12/19 07:44:15;;;;;;;9.80;8.37;;;5.10;99.90;;;;;;5055540;28;20179;-52
2020/12/19 07:46:50;;;;;;;10.50;8.70;;;5.00;99.90;;;;;;5054584;28;20213;-54
2020/12/19 07:49:27;;;;;;;9.53;7.90;;;4.90;99.90;;;;;;5054944;28;20650;-54
2020/12/19 07:52:11;;;;;;;9.83;8.37;;;4.90;99.90;;;;;;5050734;28;20587;-56
2020/12/19 07:54:38;;;;;;;10.27;8.30;;;5.00;99.90;;;;;;5045261;28;20270;-58
2020/12/19 07:57:04;;;;;;;9.70;8.23;;;4.90;99.90;;;;;;5045525;28;20270;-54
2020/12/19 07:59:30;;;;;;;10.60;8.67;;;4.90;99.90;;;;;;5039513;28;20179;-58
2020/12/19 08:01:56;;;;;;;10.00;8.27;;;4.80;99.90;;;;;;5035255;28;20190;-52
2020/12/19 08:04:22;;;;;;;9.90;8.37;;;4.80;99.90;;;;;;5034393;28;20180;-54
2020/12/19 08:06:48;;;;;;;10.50;8.10;;;4.80;99.90;;;;;;5053971;28;20278;-59
2020/12/19 08:09:18;;;;;;;14.03;12.23;;;4.70;99.90;;;;;;5053950;28;20238;-53
2020/12/19 08:11:45;;;;;;;18.30;16.07;;;4.70;99.90;;;;;;5068712;28;20216;-54
2020/12/19 08:14:13;;;;;;;13.67;11.87;;;4.80;99.90;;;;;;5074288;28;20281;-57
2020/12/19 08:16:39;;;;;;;10.73;9.57;;;4.80;99.90;;;;;;5074143;28;20178;-52
2020/12/19 08:19:05;;;;;;;11.90;9.57;;;4.80;99.90;;;;;;5075228;28;20254;-52
2020/12/19 08:21:31;;;;;;;12.00;8.80;;;4.80;99.90;;;;;;5074137;28;20185;-59
2020/12/19 08:23:57;;;;;;;11.33;8.93;;;4.80;99.90;;;;;;5075677;28;20522;-55
2020/12/19 08:26:23;;;;;;;10.90;9.43;;;4.80;99.90;;;;;;5074318;28;20183;-53
2020/12/19 08:29:02;;;;;;;10.67;9.10;;;4.60;99.90;;;;;;5074967;28;20214;-52
2020/12/19 08:31:29;;;;;;;11.83;9.73;;;4.50;99.90;;;;;;5074121;28;20174;-54
2020/12/19 08:33:57;;;;;;;11.17;9.43;;;4.50;99.90;;;;;;5077140;28;20212;-54
2020/12/19 08:36:23;;;;;;;12.83;9.10;;;4.50;99.90;;;;;;5080495;28;20630;-57
2020/12/19 08:38:48;;;;;;;11.63;9.27;;;4.50;99.90;;;;;;5080447;28;20634;-59
2020/12/19 08:41:19;;;;;;;12.53;10.60;;;4.40;99.90;;;;;;5080752;28;20186;-52
2020/12/19 08:43:44;;;;;;;12.13;10.17;;;4.30;99.90;;;;;;5082461;28;20284;-56
2020/12/19 08:46:14;;;;;;;10.67;9.27;;;4.30;99.90;;;;;;5081387;28;20562;-52
2020/12/19 08:48:41;;;;;;;11.90;9.87;;;4.40;99.90;;;;;;5082161;28;20293;-52
2020/12/19 08:51:14;;;;;;;11.40;9.20;;;4.30;99.90;;;;;;5080575;28;20166;-57
2020/12/19 08:53:39;;;;;;;10.90;9.53;;;4.30;99.90;;;;;;5081960;28;20159;-54
2020/12/19 08:56:15;;;;;;;12.17;9.97;;;4.30;99.90;;;;;;5080609;28;20170;-59
2020/12/19 08:58:41;;;;;;;11.97;9.80;;;4.20;99.90;;;;;;5081099;28;20669;-59
2020/12/19 09:01:15;;;;;;;12.23;9.50;;;4.30;99.90;;;;;;5081220;28;20175;-53
2020/12/19 09:03:41;;;;;;;11.40;9.43;;;4.40;99.90;;;;;;5080995;28;20265;-52
2020/12/19 09:06:08;;;;;;;15.50;12.00;;;4.40;99.90;;;;;;5080200;28;20174;-51
2020/12/19 09:08:42;;;;;;;11.40;9.60;;;4.40;99.90;;;;;;5081303;28;20194;-54
2020/12/19 09:11:21;;;;;;;12.37;9.87;;;4.40;99.90;;;;;;5081150;28;20186;-55
2020/12/19 09:13:47;;;;;;;12.07;9.93;;;4.40;99.90;;;;;;5081318;28;20540;-55
2020/12/19 09:16:12;;;;;;;12.87;9.53;;;4.50;99.90;;;;;;5080233;28;20713;-55
2020/12/19 09:18:39;;;;;;;11.47;9.67;;;4.60;99.90;;;;;;5080640;28;20230;-54
2020/12/19 09:21:10;;;;;;;11.67;9.77;;;4.70;99.90;;;;;;5080408;28;20220;-57
2020/12/19 09:23:36;;;;;;;12.07;9.80;;;4.70;99.90;;;;;;5081696;28;20182;-52
2020/12/19 09:26:04;;;;;;;11.23;9.27;;;4.70;99.90;;;;;;5080157;28;20174;-52
2020/12/19 09:28:29;;;;;;;11.43;9.43;;;4.80;99.90;;;;;;5080186;28;20595;-59
2020/12/19 09:30:57;;;;;;;11.67;10.17;;;4.80;99.90;;;;;;5081207;28;20180;-57
2020/12/19 09:33:23;;;;;;;12.20;9.70;;;4.80;99.90;;;;;;5081946;28;20178;-52
2020/12/19 09:35:49;;;;;;;11.77;9.13;;;4.90;99.90;;;;;;5079764;28;20223;-52
2020/12/19 09:38:15;;;;;;;11.83;10.00;;;4.90;99.90;;;;;;5080389;28;20194;-54
2020/12/19 09:40:41;;;;;;;12.40;10.37;;;4.90;99.90;;;;;;5080311;28;20239;-55
2020/12/19 09:43:07;;;;;;;12.33;10.30;;;5.00;99.90;;;;;;5081494;28;20179;-55
2020/12/19 09:45:34;;;;;;;11.53;10.33;;;5.00;99.90;;;;;;5078818;28;20189;-53
2020/12/19 09:48:00;;;;;;;10.93;9.50;;;5.00;99.90;;;;;;5077238;28;20210;-52
2020/12/19 09:50:26;;;;;;;13.67;10.40;;;4.80;99.90;;;;;;5077074;28;20189;-54
2020/12/19 09:52:52;;;;;;;12.40;10.20;;;4.80;99.90;;;;;;5078987;28;20170;-54
2020/12/19 09:55:20;;;;;;;11.43;9.53;;;4.80;99.90;;;;;;5077193;28;20194;-54
2020/12/19 09:57:46;;;;;;;9.50;8.40;;;4.70;99.90;;;;;;5076611;28;20569;-56
2020/12/19 10:00:12;;;;;;;12.77;9.70;;;4.70;99.90;;;;;;5076894;28;20642;-56
2020/12/19 10:02:39;;;;;;;10.23;8.87;;;4.60;99.90;;;;;;5076857;28;20174;-59
2020/12/19 10:05:05;;;;;;;11.97;10.13;;;4.60;99.90;;;;;;5076305;28;20701;-53
2020/12/19 10:07:31;;;;;;;11.63;8.53;;;4.60;99.90;;;;;;5076799;28;20202;-53
2020/12/19 10:09:56;;;;;;;11.37;8.90;;;4.70;99.90;;;;;;5078579;28;20262;-52
2020/12/19 10:12:22;;;;;;;11.50;9.57;;;4.80;99.90;;;;;;5078596;28;20181;-57
2020/12/19 10:14:47;;;;;;;10.27;8.63;;;4.80;99.90;;;;;;5077547;28;20166;-54
2020/12/19 10:17:13;;;;;;;10.87;8.97;;;4.80;99.90;;;;;;5076946;28;20222;-55
2020/12/19 10:19:39;;;;;;;12.57;9.90;;;4.80;99.90;;;;;;5076753;28;20182;-59
2020/12/19 10:22:04;;;;;;;12.20;9.57;;;4.90;99.90;;;;;;5076479;28;20186;-52
2020/12/19 10:24:30;;;;;;;11.23;9.27;;;4.80;99.90;;;;;;5076796;28;20217;-59
2020/12/19 10:26:56;;;;;;;11.00;9.63;;;5.00;99.90;;;;;;5075777;28;20225;-54
2020/12/19 10:29:21;;;;;;;11.83;9.57;;;5.00;99.90;;;;;;5077634;28;20167;-55
2020/12/19 10:31:47;;;;;;;10.50;8.90;;;4.90;99.90;;;;;;5075996;28;20182;-55
2020/12/19 10:34:13;;;;;;;9.37;8.07;;;4.90;99.90;;;;;;5075534;28;20173;-55
2020/12/19 10:36:39;;;;;;;11.77;9.03;;;4.90;99.90;;;;;;5052769;28;20180;-53
2020/12/19 10:39:05;;;;;;;9.67;8.10;;;5.00;99.90;;;;;;5044935;28;20187;-57
2020/12/19 10:41:30;;;;;;;10.60;8.70;;;5.00;99.90;;;;;;5047254;28;20540;-55
2020/12/19 10:43:56;;;;;;;11.00;8.77;;;4.90;99.90;;;;;;5045811;28;20721;-58
2020/12/19 10:46:26;;;;;;;9.30;8.20;;;4.90;99.90;;;;;;5045890;28;20172;-53
2020/12/19 10:48:52;;;;;;;10.70;9.17;;;4.90;99.90;;;;;;5047435;28;20187;-52
2020/12/19 10:51:25;;;;;;;10.43;9.17;;;4.80;99.90;;;;;;5056489;28;20171;-55
2020/12/19 10:53:51;;;;;;;9.97;8.43;;;4.80;99.90;;;;;;5058042;28;20692;-56
2020/12/19 10:56:18;;;;;;;11.27;9.40;;;4.80;99.90;;;;;;5055924;28;20179;-55
2020/12/19 10:58:43;;;;;;;10.33;8.10;;;4.90;99.90;;;;;;5057488;28;20191;-56
2020/12/19 11:01:09;;;;;;;11.13;8.93;;;5.00;99.90;;;;;;5056062;28;20171;-52
2020/12/19 11:03:34;;;;;;;9.37;8.13;;;5.10;99.90;;;;;;5056303;28;20262;-54
2020/12/19 11:06:00;;;;;;;9.80;8.73;;;5.10;99.90;;;;;;5055302;28;20171;-55
2020/12/19 11:08:25;;;;;;;9.77;8.40;;;5.30;99.90;;;;;;5070511;28;20202;-55
2020/12/19 11:10:51;;;;;;;10.33;9.23;;;5.30;99.90;;;;;;5075742;28;20186;-52
2020/12/19 11:13:16;;;;;;;10.53;8.97;;;5.00;99.90;;;;;;5075605;28;20218;-55
2020/12/19 11:15:42;;;;;;;26.67;16.80;;;4.90;99.90;;;;;;5076565;28;20610;-58
2020/12/19 11:18:07;;;;;;;9.97;8.63;;;4.90;99.90;;;;;;5076599;28;20670;-57
2020/12/19 11:20:33;;;;;;;11.93;10.00;;;5.00;99.90;;;;;;5075665;28;20171;-59
2020/12/19 11:22:58;;;;;;;13.40;9.97;;;5.10;99.90;;;;;;5076210;28;20174;-54
2020/12/19 11:25:24;;;;;;;11.43;9.30;;;5.10;99.90;;;;;;5076961;28;20569;-58
2020/12/19 11:27:50;;;;;;;10.93;8.83;;;5.20;99.90;;;;;;5075301;28;20217;-53
2020/12/19 11:30:15;;;;;;;10.60;9.07;;;5.10;99.90;;;;;;5075132;28;20182;-56
2020/12/19 11:32:41;;;;;;;20.47;14.37;;;5.20;99.90;;;;;;5075217;28;20167;-52
2020/12/19 11:35:08;;;;;;;10.47;9.13;;;5.10;99.90;;;;;;5074826;28;20190;-57
2020/12/19 11:37:34;;;;;;;10.97;9.17;;;5.10;99.90;;;;;;5074938;28;20194;-55
2020/12/19 11:39:59;;;;;;;10.93;9.33;;;5.00;99.90;;;;;;5069829;28;20550;-55
2020/12/19 11:42:25;;;;;;;9.63;8.20;;;4.90;99.90;;;;;;5012127;28;20183;-50
2020/12/19 11:44:50;;;;;;;10.50;9.03;;;4.90;99.90;;;;;;5049507;28;20221;-54
2020/12/19 11:47:16;;;;;;;11.80;9.97;;;5.00;99.90;;;;;;5054392;28;20252;-56
2020/12/19 11:49:41;;;;;;;12.50;8.70;;;4.90;99.90;;;;;;5056825;28;20175;-52
2020/12/19 11:52:09;;;;;;;11.30;9.50;;;4.80;99.90;;;;;;5053616;28;20240;-54
2020/12/19 11:54:38;;;;;;;10.47;8.70;;;4.70;99.90;;;;;;5047839;28;20609;-55
2020/12/19 11:57:04;;;;;;;11.67;9.80;;;4.80;99.90;;;;;;5045032;28;20195;-56
2020/12/19 11:59:30;;;;;;;11.77;9.37;;;4.90;99.90;;;;;;5054223;28;20167;-59
2020/12/19 12:01:59;;;;;;;10.20;8.33;;;5.00;99.90;;;;;;5055275;28;20179;-54
2020/12/19 12:04:25;;;;;;;10.23;9.07;;;5.20;99.90;;;;;;5054804;28;20224;-53
2020/12/19 12:06:50;;;;;;;12.03;10.20;;;5.30;99.90;;;;;;5054636;28;20195;-52
2020/12/19 12:09:16;;;;;;;13.53;11.13;;;5.50;99.90;;;;;;5053342;28;20348;-54
2020/12/19 12:11:41;;;;;;;12.73;10.20;;;5.40;99.90;;;;;;5054478;28;20325;-60
2020/12/19 12:14:07;;;;;;;15.37;12.90;;;5.20;99.90;;;;;;5053591;28;20179;-52
2020/12/19 12:16:33;;;;;;;13.93;11.17;;;5.10;99.90;;;;;;5054143;28;20175;-52
2020/12/19 12:18:58;;;;;;;24.73;18.17;;;5.00;99.90;;;;;;5053816;28;20183;-53
2020/12/19 12:21:26;;;;;;;23.73;17.17;;;5.00;99.90;;;;;;5053446;28;20179;-57
2020/12/19 12:23:51;;;;;;;14.63;11.20;;;5.00;99.90;;;;;;5055085;28;20186;-55
2020/12/19 12:26:21;;;;;;;12.07;10.17;;;4.90;99.90;;;;;;5053015;28;20329;-53
2020/12/19 12:28:47;;;;;;;11.57;10.03;;;4.80;99.90;;;;;;5053524;28;20272;-53
2020/12/19 12:31:13;;;;;;;12.07;9.67;;;4.80;99.90;;;;;;5054341;28;20171;-53
2020/12/19 12:33:38;;;;;;;22.33;15.20;;;4.80;99.90;;;;;;5054688;28;20206;-58
2020/12/19 12:36:07;;;;;;;11.20;9.83;;;4.90;99.90;;;;;;5053534;28;20210;-53
2020/12/19 12:38:33;;;;;;;14.23;12.53;;;4.80;99.90;;;;;;5053378;28;20245;-53
2020/12/19 12:40:59;;;;;;;15.97;13.37;;;4.80;99.90;;;;;;5054116;28;20175;-54
2020/12/19 12:43:24;;;;;;;20.50;17.20;;;4.80;99.90;;;;;;5052007;28;20207;-55